createdAt,value
2023-04-02T00:01:02.136Z,1.10
2023-04-02T00:16:07.571Z,0.70
2023-04-02T00:31:11.609Z,0.87
2023-04-02T00:46:22.246Z,0.80
2023-04-02T01:01:28.716Z,1.27
2023-04-02T01:16:31.153Z,0.80
2023-04-02T01:31:34.582Z,0.60
2023-04-02T01:46:41.601Z,0.47
2023-04-02T02:01:59.253Z,0.63
2023-04-02T02:17:04.365Z,0.90
2023-04-02T02:32:07.613Z,0.73
2023-04-02T02:47:15.098Z,0.90
2023-04-02T03:02:17.492Z,0.77
2023-04-02T03:17:35.847Z,2.67
2023-04-02T03:32:41.133Z,0.93
2023-04-02T03:48:01.355Z,1.00
2023-04-02T04:03:36.249Z,6.93
2023-04-02T04:18:44.067Z,0.70
2023-04-02T04:33:50.841Z,1.23
2023-04-02T04:49:02.078Z,3.40
2023-04-02T05:04:23.011Z,3.97
2023-04-02T05:19:46.642Z,3.70
2023-04-02T05:34:53.731Z,8.50
2023-04-02T05:50:01.253Z,3.70
2023-04-02T06:05:17.127Z,4.43
2023-04-02T06:20:21.414Z,3.77
2023-04-02T06:35:23.694Z,3.13
2023-04-02T06:51:07.257Z,4.23
2023-04-02T07:06:15.702Z,6.90
2023-04-02T07:21:17.715Z,1.00
2023-04-02T07:36:23.191Z,1.47
2023-04-02T07:51:26.760Z,0.77
2023-04-02T08:06:29.412Z,3.73
2023-04-02T08:21:31.780Z,1.57
2023-04-02T08:36:37.876Z,1.30
2023-04-02T08:51:40.316Z,3.03
2023-04-02T09:06:43.976Z,0.70
2023-04-02T09:22:01.983Z,0.73
2023-04-02T09:37:15.532Z,0.90
2023-04-02T09:52:28.801Z,0.77
2023-04-02T10:07:38.579Z,4.23
2023-04-02T10:22:46.730Z,1.37
2023-04-02T10:38:07.340Z,0.80
2023-04-02T10:53:17.215Z,2.73
2023-04-02T11:08:24.102Z,0.93
2023-04-02T11:23:32.757Z,3.07
2023-04-02T11:38:46.595Z,1.20
2023-04-02T11:53:50.318Z,1.00
2023-04-02T12:09:06.030Z,1.00
2023-04-02T12:24:19.729Z,1.40
2023-04-02T12:39:22.286Z,4.00
2023-04-02T12:54:24.510Z,1.50
2023-04-02T13:09:31.630Z,1.57
2023-04-02T13:24:34.333Z,1.13
2023-04-02T13:39:36.888Z,2.10
2023-04-02T13:54:49.008Z,2.30
2023-04-02T14:10:04.348Z,0.97
2023-04-02T14:25:23.378Z,3.57
2023-04-02T14:40:40.258Z,1.90
2023-04-02T14:55:49.469Z,1.50
2023-04-02T15:11:16.526Z,1.67
2023-04-02T15:26:44.587Z,2.97
2023-04-02T15:42:18.868Z,2.30
2023-04-02T15:57:32.485Z,4.17
2023-04-02T16:12:37.238Z,2.30
2023-04-02T16:27:45.467Z,6.03
2023-04-02T16:43:11.679Z,21.90
2023-04-02T16:58:19.420Z,4.30
2023-04-02T17:13:41.791Z,8.83
2023-04-02T17:28:47.912Z,6.77
2023-04-02T17:43:58.666Z,9.93
2023-04-02T18:07:02.026Z,7.04
2023-04-02T18:22:33.195Z,12.33
2023-04-02T18:37:56.516Z,10.03
2023-04-02T18:52:58.598Z,7.40
2023-04-02T19:08:10.407Z,8.57
2023-04-02T19:23:31.085Z,8.33
2023-04-02T19:39:02.416Z,9.20
2023-04-02T19:54:04.647Z,9.80
2023-04-02T20:09:08.333Z,10.33
2023-04-02T20:24:10.281Z,9.13
2023-04-02T20:39:18.098Z,7.23
2023-04-02T20:54:20.021Z,9.43
2023-04-02T21:09:22.097Z,7.90
2023-04-02T21:24:24.062Z,7.83
2023-04-02T21:39:26.037Z,9.27
2023-04-02T21:54:28.043Z,5.40
2023-04-02T22:09:29.941Z,7.17
2023-04-02T22:24:31.867Z,4.93
2023-04-02T22:39:33.781Z,4.53
2023-04-02T22:54:35.846Z,5.53
2023-04-02T23:09:37.811Z,5.87
2023-04-02T23:24:39.701Z,6.90
2023-04-02T23:39:41.747Z,5.20
2023-04-02T23:54:43.701Z,4.00
